Time,TemperatureF,DewpointF,PressureIn,WindDirection,WindDirectionDegrees,WindSpeedMPH,WindSpeedGustMPH,Humidity,HourlyPrecipIn,Conditions,Clouds,dailyrainin,SoftwareType,DateUTC
2013-01-13 00:00:00,10.4,-2.2,29.91,West,259,3.5,3.6,56,0.00,CLR,,0.00,WeatherDisplay:10.37,2013-01-13 06:00:00,
2013-01-13 00:06:00,10.4,-2.2,29.91,WNW,293,3.5,3.5,56,0.00,CLR,,0.00,WeatherDisplay:10.37,2013-01-13 06:06:00,
2013-01-13 00:11:00,10.4,-2.2,29.91,West,281,4.6,4.6,56,0.00,CLR,,0.00,WeatherDisplay:10.37,2013-01-13 06:11:00,
2013-01-13 00:16:00,10.6,-2.0,29.91,WNW,282,3.5,3.5,56,0.00,CLR,,0.00,WeatherDisplay:10.37,2013-01-13 06:16:00,
2013-01-13 00:21:00,10.4,-2.2,29.91,WNW,286,3.5,3.5,56,0.00,CLR,,0.00,WeatherDisplay:10.37,2013-01-13 06:21:00,
2013-01-13 00:27:00,10.6,-2.0,29.91,WNW,286,3.5,3.6,56,0.00,CLR,,0.00,WeatherDisplay:10.37,2013-01-13 06:27:00,
2013-01-13 00:32:00,10.6,-2.0,29.91,West,268,3.5,3.6,56,0.00,CLR,,0.00,WeatherDisplay:10.37,2013-01-13 06:32:00,
2013-01-13 00:37:00,10.4,-2.2,29.91,WNW,303,4.6,4.6,56,0.00,CLR,,0.00,WeatherDisplay:10.37,2013-01-13 06:37:00,
2013-01-13 00:42:00,10.4,-2.2,29.91,NW,323,4.6,4.6,56,0.00,CLR,,0.00,WeatherDisplay:10.37,2013-01-13 06:42:00,
2013-01-13 00:47:00,10.2,-2.4,29.91,West,267,4.6,4.6,56,0.00,CLR,,0.00,WeatherDisplay:10.37,2013-01-13 06:47:00,
2013-01-13 00:53:00,10.0,-2.6,29.91,West,268,5.8,5.8,56,0.00,CLR,,0.00,WeatherDisplay:10.37,2013-01-13 06:53:00,
2013-01-13 00:58:00,9.7,-2.9,29.91,WNW,292,5.8,5.8,56,0.00,CLR,,0.00,WeatherDisplay:10.37,2013-01-13 06:58:00,
2013-01-13 01:03:00,9.5,-3.1,29.91,WSW,244,5.8,5.8,56,0.00,CLR,,0.00,WeatherDisplay:10.37,2013-01-13 07:03:00,
2013-01-13 01:08:00,9.3,-3.2,29.91,West,271,5.8,5.8,56,0.00,CLR,,0.00,WeatherDisplay:10.37,2013-01-13 07:08:00,
2013-01-13 01:13:00,9.1,-3.4,29.91,WNW,291,2.3,0.0,56,0.00,CLR,,0.00,WeatherDisplay:10.37,2013-01-13 07:13:00,
2013-01-13 01:19:00,8.8,-3.7,29.91,WNW,283,3.5,3.5,56,0.00,CLR,,0.00,WeatherDisplay:10.37,2013-01-13 07:19:00,
2013-01-13 01:24:00,8.6,-3.9,29.91,NW,314,3.5,3.5,56,0.00,CLR,,0.00,WeatherDisplay:10.37,2013-01-13 07:24:00,
2013-01-13 01:29:00,8.6,-3.9,29.91,WNW,293,3.5,3.5,56,0.00,CLR,,0.00,WeatherDisplay:10.37,2013-01-13 07:29:00,
2013-01-13 01:34:00,8.4,-4.1,29.91,NW,305,2.3,2.3,56,0.00,CLR,,0.00,WeatherDisplay:10.37,2013-01-13 07:34:00,
2013-01-13 01:40:00,8.2,-4.3,29.91,NW,304,5.8,5.8,56,0.00,CLR,,0.00,WeatherDisplay:10.37,2013-01-13 07:40:00,
2013-01-13 01:45:00,8.1,-4.4,29.91,West,280,3.5,3.5,56,0.00,CLR,,0.00,WeatherDisplay:10.37,2013-01-13 07:45:00,
2013-01-13 01:50:00,7.9,-4.6,29.91,NW,306,3.5,3.5,56,0.00,CLR,,0.00,WeatherDisplay:10.37,2013-01-13 07:50:00,
2013-01-13 01:55:00,7.9,-4.6,29.91,WNW,289,3.5,3.5,56,0.00,CLR,,0.00,WeatherDisplay:10.37,2013-01-13 07:55:00,
2013-01-13 02:01:00,7.7,-4.8,29.91,NNW,329,3.5,3.5,56,0.00,CLR,,0.00,WeatherDisplay:10.37,2013-01-13 08:01:00,
2013-01-13 02:06:00,7.5,-4.9,29.94,NNW,335,3.5,3.5,56,0.00,CLR,,0.00,WeatherDisplay:10.37,2013-01-13 08:06:00,
2013-01-13 02:11:00,7.5,-4.9,29.94,WNW,292,3.5,0.0,56,0.00,CLR,,0.00,WeatherDisplay:10.37,2013-01-13 08:11:00,
2013-01-13 02:16:00,7.5,-4.9,29.94,WNW,301,2.3,2.3,56,0.00,CLR,,0.00,WeatherDisplay:10.37,2013-01-13 08:16:00,
2013-01-13 02:21:00,7.3,-5.1,29.94,NW,325,4.0,4.0,56,0.00,CLR,,0.00,WeatherDisplay:10.37,2013-01-13 08:21:00,
2013-01-13 02:26:00,7.2,-5.3,29.94,WNW,294,3.5,3.5,56,0.00,CLR,,0.00,WeatherDisplay:10.37,2013-01-13 08:26:00,
2013-01-13 02:32:00,7.2,-5.3,29.94,West,273,3.5,3.5,56,0.00,CLR,,0.00,WeatherDisplay:10.37,2013-01-13 08:32:00,
2013-01-13 02:37:00,7.2,-5.3,29.91,NW,325,3.5,3.6,56,0.00,CLR,,0.00,WeatherDisplay:10.37,2013-01-13 08:37:00,
2013-01-13 02:42:00,7.2,-5.3,29.91,NW,305,3.5,3.5,56,0.00,CLR,,0.00,WeatherDisplay:10.37,2013-01-13 08:42:00,
2013-01-13 02:47:00,7.2,-5.3,29.91,WNW,303,2.3,0.0,56,0.00,CLR,,0.00,WeatherDisplay:10.37,2013-01-13 08:47:00,
2013-01-13 02:52:00,7.3,-5.1,29.91,NW,304,2.3,0.0,56,0.00,CLR,,0.00,WeatherDisplay:10.37,2013-01-13 08:52:00,
2013-01-13 02:58:00,7.5,-4.9,29.91,SW,228,4.6,4.6,56,0.00,CLR,,0.00,WeatherDisplay:10.37,2013-01-13 08:58:00,
2013-01-13 03:03:00,7.7,-4.8,29.91,WNW,287,3.5,3.5,56,0.00,CLR,,0.00,WeatherDisplay:10.37,2013-01-13 09:03:00,
2013-01-13 03:08:00,7.7,-4.8,29.91,West,271,3.5,3.5,56,0.00,CLR,,0.00,WeatherDisplay:10.37,2013-01-13 09:08:00,
2013-01-13 03:13:00,7.9,-4.6,29.91,NW,312,3.5,3.5,56,0.00,CLR,,0.00,WeatherDisplay:10.37,2013-01-13 09:13:00,
2013-01-13 03:19:00,7.9,-4.6,29.91,West,269,3.5,3.5,56,0.00,CLR,,0.00,WeatherDisplay:10.37,2013-01-13 09:19:00,
2013-01-13 03:24:00,8.1,-4.4,29.91,West,261,3.5,3.5,56,0.00,CLR,,0.00,WeatherDisplay:10.37,2013-01-13 09:24:00,
2013-01-13 03:29:00,8.1,-4.4,29.91,West,275,3.5,3.5,56,0.00,CLR,,0.00,WeatherDisplay:10.37,2013-01-13 09:29:00,
2013-01-13 03:34:00,8.1,-4.4,29.94,WNW,295,5.8,5.8,56,0.00,CLR,,0.00,WeatherDisplay:10.37,2013-01-13 09:34:00,
2013-01-13 03:39:00,8.1,-4.4,29.94,NNW,328,2.3,2.3,56,0.00,CLR,,0.00,WeatherDisplay:10.37,2013-01-13 09:39:00,
2013-01-13 03:44:00,8.1,-4.4,29.94,WNW,289,3.5,3.5,56,0.00,CLR,,0.00,WeatherDisplay:10.37,2013-01-13 09:44:00,
2013-01-13 03:49:00,8.1,-4.4,29.91,West,261,4.9,4.9,56,0.00,CLR,,0.00,WeatherDisplay:10.37,2013-01-13 09:49:00,
2013-01-13 03:54:00,8.1,-4.4,29.91,NW,304,4.6,4.6,56,0.00,CLR,,0.00,WeatherDisplay:10.37,2013-01-13 09:54:00,
2013-01-13 04:00:00,8.1,-4.4,29.91,West,279,5.8,5.8,56,0.00,CLR,,0.00,WeatherDisplay:10.37,2013-01-13 10:00:00,
2013-01-13 04:05:00,8.1,-4.4,29.91,NNW,337,3.5,3.5,56,0.00,CLR,,0.00,WeatherDisplay:10.37,2013-01-13 10:05:00,
2013-01-13 04:10:00,7.9,-4.6,29.91,NW,312,3.5,3.5,56,0.00,CLR,,0.00,WeatherDisplay:10.37,2013-01-13 10:10:00,
2013-01-13 04:15:00,7.9,-4.6,29.91,NW,316,3.5,3.5,56,0.00,CLR,,0.00,WeatherDisplay:10.37,2013-01-13 10:15:00,
2013-01-13 04:20:00,7.9,-4.6,29.91,WNW,296,3.5,3.5,56,0.00,CLR,,0.00,WeatherDisplay:10.37,2013-01-13 10:20:00,
2013-01-13 04:25:00,8.1,-4.4,29.91,SW,228,2.3,0.0,56,0.00,CLR,,0.00,WeatherDisplay:10.37,2013-01-13 10:25:00,
2013-01-13 04:31:00,8.1,-4.4,29.91,West,265,3.5,3.5,56,0.00,CLR,,0.00,WeatherDisplay:10.37,2013-01-13 10:31:00,
2013-01-13 04:36:00,8.1,-4.4,29.88,West,276,3.5,3.5,56,0.00,CLR,,0.00,WeatherDisplay:10.37,2013-01-13 10:36:00,
2013-01-13 04:41:00,8.1,-4.4,29.88,WNW,289,3.5,3.5,56,0.00,CLR,,0.00,WeatherDisplay:10.37,2013-01-13 10:41:00,
2013-01-13 04:46:00,8.1,-4.4,29.88,West,263,3.5,3.5,56,0.00,CLR,,0.00,WeatherDisplay:10.37,2013-01-13 10:46:00,
2013-01-13 04:52:00,8.1,-4.4,29.91,WNW,302,3.5,3.5,56,0.00,CLR,,0.00,WeatherDisplay:10.37,2013-01-13 10:52:00,
2013-01-13 04:57:00,8.2,-4.3,29.91,West,280,0.0,0.0,56,0.00,CLR,,0.00,WeatherDisplay:10.37,2013-01-13 10:57:00,
2013-01-13 05:02:00,8.2,-4.3,29.91,West,271,3.5,3.5,56,0.00,CLR,,0.00,WeatherDisplay:10.37,2013-01-13 11:02:00,
2013-01-13 05:07:00,8.2,-4.3,29.91,WNW,287,3.5,3.5,56,0.00,CLR,,0.00,WeatherDisplay:10.37,2013-01-13 11:07:00,
2013-01-13 05:13:00,8.2,-4.3,29.91,NW,306,4.6,4.6,56,0.00,CLR,,0.00,WeatherDisplay:10.37,2013-01-13 11:13:00,
2013-01-13 05:18:00,8.2,-4.3,29.91,West,263,3.5,3.5,56,0.00,CLR,,0.00,WeatherDisplay:10.37,2013-01-13 11:18:00,
2013-01-13 05:23:00,8.4,-4.1,29.91,WSW,245,3.5,3.5,56,0.00,CLR,,0.00,WeatherDisplay:10.37,2013-01-13 11:23:00,
2013-01-13 05:28:00,8.4,-4.1,29.91,West,281,3.5,3.5,56,0.00,CLR,,0.00,WeatherDisplay:10.37,2013-01-13 11:28:00,
2013-01-13 05:33:00,8.4,-4.1,29.94,West,279,4.9,4.9,56,0.00,CLR,,0.00,WeatherDisplay:10.37,2013-01-13 11:33:00,
2013-01-13 05:39:00,8.4,-4.1,29.94,SW,233,5.8,5.8,56,0.00,CLR,,0.00,WeatherDisplay:10.37,2013-01-13 11:39:00,
2013-01-13 05:44:00,8.4,-4.1,29.94,West,277,3.5,3.5,56,0.00,CLR,,0.00,WeatherDisplay:10.37,2013-01-13 11:44:00,
2013-01-13 05:49:00,8.4,-4.1,29.94,West,263,3.5,3.6,56,0.00,CLR,,0.00,WeatherDisplay:10.37,2013-01-13 11:49:00,
2013-01-13 05:54:00,8.4,-4.1,29.94,West,260,3.5,3.5,56,0.00,CLR,,0.00,WeatherDisplay:10.37,2013-01-13 11:54:00,
2013-01-13 05:59:00,8.4,-4.1,29.94,WSW,244,4.6,4.6,56,0.00,CLR,,0.00,WeatherDisplay:10.37,2013-01-13 11:59:00,
2013-01-13 06:05:00,8.2,-4.3,29.94,West,272,3.5,3.5,56,0.00,CLR,,0.00,WeatherDisplay:10.37,2013-01-13 12:05:00,
2013-01-13 06:10:00,8.2,-4.3,29.94,WNW,286,5.8,5.8,56,0.00,CLR,,0.00,WeatherDisplay:10.37,2013-01-13 12:10:00,
2013-01-13 06:15:00,8.2,-4.3,29.94,WSW,258,5.8,5.8,56,0.00,CLR,,0.00,WeatherDisplay:10.37,2013-01-13 12:15:00,
2013-01-13 06:20:00,8.2,-4.3,29.94,WSW,247,5.8,5.8,56,0.00,CLR,,0.00,WeatherDisplay:10.37,2013-01-13 12:20:00,
2013-01-13 06:25:00,8.1,-4.4,29.94,West,276,4.0,4.0,56,0.00,CLR,,0.00,WeatherDisplay:10.37,2013-01-13 12:25:00,
2013-01-13 06:31:00,8.1,-4.4,29.94,WSW,255,3.5,3.5,56,0.00,CLR,,0.00,WeatherDisplay:10.37,2013-01-13 12:31:00,
2013-01-13 06:36:00,8.2,-4.3,29.94,WSW,254,3.5,3.5,56,0.00,CLR,,0.00,WeatherDisplay:10.37,2013-01-13 12:36:00,
2013-01-13 06:41:00,8.2,-4.3,29.94,West,265,5.8,5.8,56,0.00,CLR,,0.00,WeatherDisplay:10.37,2013-01-13 12:41:00,
2013-01-13 06:47:00,8.1,-4.4,29.94,WNW,299,3.5,3.5,56,0.00,CLR,,0.00,WeatherDisplay:10.37,2013-01-13 12:47:00,
2013-01-13 06:52:00,8.2,-4.3,29.94,West,275,3.6,3.6,56,0.00,CLR,,0.00,WeatherDisplay:10.37,2013-01-13 12:52:00,
2013-01-13 06:57:00,8.2,-4.3,29.94,WSW,240,3.5,3.5,56,0.00,CLR,,0.00,WeatherDisplay:10.37,2013-01-13 12:57:00,
2013-01-13 07:02:00,8.2,-4.3,29.94,WSW,252,3.5,3.6,56,0.00,CLR,,0.00,WeatherDisplay:10.37,2013-01-13 13:02:00,
2013-01-13 07:07:00,8.2,-4.3,29.94,WNW,286,5.8,5.8,56,0.00,CLR,,0.00,WeatherDisplay:10.37,2013-01-13 13:07:00,
2013-01-13 07:12:00,8.2,-4.3,29.94,West,269,5.8,5.8,56,0.00,CLR,,0.00,WeatherDisplay:10.37,2013-01-13 13:12:00,
2013-01-13 07:18:00,8.2,-4.3,29.94,WSW,240,3.5,3.5,56,0.00,CLR,,0.00,WeatherDisplay:10.37,2013-01-13 13:18:00,
2013-01-13 07:23:00,8.2,-4.3,29.94,WSW,246,5.8,5.8,56,0.00,CLR,,0.00,WeatherDisplay:10.37,2013-01-13 13:23:00,
2013-01-13 07:28:00,8.1,-4.4,29.94,West,275,3.5,4.0,56,0.00,CLR,,0.00,WeatherDisplay:10.37,2013-01-13 13:28:00,
2013-01-13 07:33:00,8.1,-4.4,29.97,WNW,288,5.8,5.8,56,0.00,CLR,,0.00,WeatherDisplay:10.37,2013-01-13 13:33:00,
2013-01-13 07:38:00,8.1,-4.4,29.97,WSW,244,4.6,4.6,56,0.00,CLR,,0.00,WeatherDisplay:10.37,2013-01-13 13:38:00,
2013-01-13 07:44:00,8.2,-4.3,29.97,WNW,288,5.8,5.8,56,0.00,CLR,,0.00,WeatherDisplay:10.37,2013-01-13 13:44:00,
2013-01-13 07:49:00,8.2,-4.3,29.97,West,265,3.5,3.5,56,0.00,CLR,,0.00,WeatherDisplay:10.37,2013-01-13 13:49:00,
2013-01-13 07:54:00,8.2,-4.3,29.97,WSW,256,5.8,5.8,56,0.00,CLR,,0.00,WeatherDisplay:10.37,2013-01-13 13:54:00,
2013-01-13 07:59:00,8.2,-4.3,29.97,SW,236,4.6,4.6,56,0.00,CLR,,0.00,WeatherDisplay:10.37,2013-01-13 13:59:00,
2013-01-13 08:04:00,8.4,-4.1,29.97,West,259,5.8,5.8,56,0.00,CLR,,0.00,WeatherDisplay:10.37,2013-01-13 14:04:00,
2013-01-13 08:10:00,8.4,-4.1,29.97,West,272,4.6,4.6,56,0.00,CLR,,0.00,WeatherDisplay:10.37,2013-01-13 14:10:00,
2013-01-13 08:15:00,8.4,-4.1,29.97,NW,306,3.5,0.0,56,0.00,CLR,,0.00,WeatherDisplay:10.37,2013-01-13 14:15:00,
2013-01-13 08:20:00,8.6,-3.9,29.97,West,263,3.5,3.5,56,0.00,CLR,,0.00,WeatherDisplay:10.37,2013-01-13 14:20:00,
2013-01-13 08:25:00,8.6,-3.9,29.97,WNW,289,3.5,3.5,56,0.00,CLR,,0.00,WeatherDisplay:10.37,2013-01-13 14:25:00,
2013-01-13 08:30:00,8.8,-3.7,29.97,WSW,240,5.8,5.8,56,0.00,CLR,,0.00,WeatherDisplay:10.37,2013-01-13 14:30:00,
2013-01-13 08:35:00,8.8,-3.7,29.97,WSW,252,5.8,5.8,56,0.00,CLR,,0.00,WeatherDisplay:10.37,2013-01-13 14:35:00,
2013-01-13 08:40:00,8.8,-3.7,29.97,WSW,240,4.6,4.6,56,0.00,CLR,,0.00,WeatherDisplay:10.37,2013-01-13 14:40:00,
2013-01-13 08:45:00,8.8,-3.7,29.97,WSW,255,3.5,3.5,56,0.00,CLR,,0.00,WeatherDisplay:10.37,2013-01-13 14:45:00,
2013-01-13 08:50:00,9.0,-3.6,29.97,WSW,251,3.5,3.5,56,0.00,CLR,,0.00,WeatherDisplay:10.37,2013-01-13 14:50:00,
2013-01-13 08:56:00,9.1,-3.4,29.97,SW,221,5.8,5.8,56,0.00,CLR,,0.00,WeatherDisplay:10.37,2013-01-13 14:56:00,
2013-01-13 09:01:00,9.1,-3.4,29.97,SW,222,5.8,5.8,56,0.00,CLR,,0.00,WeatherDisplay:10.37,2013-01-13 15:01:00,
2013-01-13 09:06:00,9.3,-3.2,29.97,WSW,254,4.6,4.6,56,0.00,CLR,,0.00,WeatherDisplay:10.37,2013-01-13 15:06:00,
2013-01-13 09:11:00,9.3,-3.2,29.97,WSW,240,3.1,3.1,56,0.00,CLR,,0.00,WeatherDisplay:10.37,2013-01-13 15:11:00,
2013-01-13 09:16:00,9.5,-3.1,29.97,WSW,238,3.5,3.5,56,0.00,CLR,,0.00,WeatherDisplay:10.37,2013-01-13 15:16:00,
2013-01-13 09:21:00,9.7,-2.9,29.97,West,260,5.8,5.8,56,0.00,CLR,,0.00,WeatherDisplay:10.37,2013-01-13 15:21:00,
2013-01-13 09:26:00,9.7,-2.9,29.97,SW,226,3.5,3.5,56,0.00,CLR,,0.00,WeatherDisplay:10.37,2013-01-13 15:26:00,
2013-01-13 09:31:00,10.0,-2.6,29.97,West,261,2.3,2.3,56,0.00,CLR,,0.00,WeatherDisplay:10.37,2013-01-13 15:31:00,
2013-01-13 09:37:00,10.0,-2.6,29.97,WSW,253,4.6,4.6,56,0.00,CLR,,0.00,WeatherDisplay:10.37,2013-01-13 15:37:00,
2013-01-13 09:42:00,10.2,-2.4,29.97,WNW,283,3.5,3.5,56,0.00,CLR,,0.00,WeatherDisplay:10.37,2013-01-13 15:42:00,
2013-01-13 09:47:00,10.4,-2.2,29.97,WNW,288,3.5,3.5,56,0.00,CLR,,0.00,WeatherDisplay:10.37,2013-01-13 15:47:00,
2013-01-13 09:52:00,10.4,-2.2,29.97,WNW,284,3.5,3.5,56,0.00,CLR,,0.00,WeatherDisplay:10.37,2013-01-13 15:52:00,
2013-01-13 09:58:00,10.8,-1.9,29.97,West,271,4.6,4.6,56,0.00,CLR,,0.00,WeatherDisplay:10.37,2013-01-13 15:58:00,
2013-01-13 10:03:00,10.8,-1.9,29.97,WNW,294,3.6,3.6,56,0.00,CLR,,0.00,WeatherDisplay:10.37,2013-01-13 16:03:00,
2013-01-13 10:08:00,10.9,-1.7,29.97,WSW,245,3.5,3.5,56,0.00,CLR,,0.00,WeatherDisplay:10.37,2013-01-13 16:08:00,
2013-01-13 10:13:00,11.1,-1.5,29.97,WSW,239,5.8,5.8,56,0.00,CLR,,0.00,WeatherDisplay:10.37,2013-01-13 16:13:00,
2013-01-13 10:18:00,11.1,-1.5,29.97,West,273,3.6,3.6,56,0.00,CLR,,0.00,WeatherDisplay:10.37,2013-01-13 16:18:00,
2013-01-13 10:23:00,11.3,-1.4,29.97,WNW,288,4.6,4.6,56,0.00,CLR,,0.00,WeatherDisplay:10.37,2013-01-13 16:23:00,
2013-01-13 10:28:00,11.7,-1.0,29.97,West,262,5.8,5.8,56,0.00,CLR,,0.00,WeatherDisplay:10.37,2013-01-13 16:28:00,
2013-01-13 10:33:00,11.8,-0.9,29.97,West,276,3.5,3.5,56,0.00,CLR,,0.00,WeatherDisplay:10.37,2013-01-13 16:33:00,
2013-01-13 10:38:00,11.8,-0.9,29.97,WNW,288,5.8,5.8,56,0.00,CLR,,0.00,WeatherDisplay:10.37,2013-01-13 16:38:00,
2013-01-13 10:44:00,12.0,-0.7,29.97,WNW,301,4.6,4.6,56,0.00,CLR,,0.00,WeatherDisplay:10.37,2013-01-13 16:44:00,
2013-01-13 10:49:00,12.2,-0.5,29.94,WNW,300,4.6,4.6,56,0.00,CLR,,0.00,WeatherDisplay:10.37,2013-01-13 16:49:00,
2013-01-13 10:54:00,12.6,-0.2,29.94,WSW,238,3.5,3.5,56,0.00,CLR,,0.00,WeatherDisplay:10.37,2013-01-13 16:54:00,
2013-01-13 10:59:00,12.6,-0.2,29.94,WNW,284,8.1,8.1,56,0.00,CLR,,0.00,WeatherDisplay:10.37,2013-01-13 16:59:00,
2013-01-13 11:05:00,12.7,0.0,29.94,WNW,282,5.8,5.8,56,0.00,CLR,,0.00,WeatherDisplay:10.37,2013-01-13 17:05:00,
2013-01-13 11:10:00,13.1,0.3,29.94,WSW,244,3.5,3.5,56,0.00,CLR,,0.00,WeatherDisplay:10.37,2013-01-13 17:10:00,
2013-01-13 11:15:00,13.1,0.3,29.94,WSW,257,3.5,3.5,56,0.00,CLR,,0.00,WeatherDisplay:10.37,2013-01-13 17:15:00,
2013-01-13 11:20:00,12.9,0.2,29.94,West,260,5.8,5.8,56,0.00,CLR,,0.00,WeatherDisplay:10.37,2013-01-13 17:20:00,
2013-01-13 11:25:00,12.9,0.2,29.94,SW,216,5.8,5.8,56,0.00,CLR,,0.00,WeatherDisplay:10.37,2013-01-13 17:25:00,
2013-01-13 11:31:00,13.1,0.3,29.94,West,271,3.5,3.6,56,0.00,CLR,,0.00,WeatherDisplay:10.37,2013-01-13 17:31:00,
2013-01-13 11:36:00,13.3,0.5,29.94,NW,321,4.6,4.6,56,0.00,CLR,,0.00,WeatherDisplay:10.37,2013-01-13 17:36:00,
2013-01-13 11:41:00,13.5,0.7,29.94,West,264,4.6,4.6,56,0.00,CLR,,0.00,WeatherDisplay:10.37,2013-01-13 17:41:00,
2013-01-13 11:46:00,13.5,0.7,29.94,North,353,3.6,3.6,56,0.00,CLR,,0.00,WeatherDisplay:10.37,2013-01-13 17:46:00,
2013-01-13 11:51:00,13.5,0.7,29.91,NW,306,5.8,5.8,56,0.00,CLR,,0.00,WeatherDisplay:10.37,2013-01-13 17:51:00,
2013-01-13 11:56:00,13.5,0.7,29.91,WNW,296,5.8,5.8,56,0.00,CLR,,0.00,WeatherDisplay:10.37,2013-01-13 17:56:00,
2013-01-13 12:02:00,13.5,0.7,29.91,WNW,299,5.8,5.8,56,0.00,CLR,,0.00,WeatherDisplay:10.37,2013-01-13 18:02:00,
2013-01-13 12:07:00,13.6,0.8,29.91,WNW,299,3.5,3.5,56,0.00,CLR,,0.00,WeatherDisplay:10.37,2013-01-13 18:07:00,
2013-01-13 12:12:00,13.8,1.0,29.91,West,280,8.1,8.1,56,0.00,CLR,,0.00,WeatherDisplay:10.37,2013-01-13 18:12:00,
2013-01-13 12:17:00,13.6,0.8,29.91,WSW,257,4.6,4.6,56,0.00,CLR,,0.00,WeatherDisplay:10.37,2013-01-13 18:17:00,
2013-01-13 12:22:00,13.8,1.0,29.91,West,263,3.6,3.6,56,0.00,CLR,,0.00,WeatherDisplay:10.37,2013-01-13 18:22:00,
2013-01-13 12:27:00,13.8,1.0,29.91,WSW,243,5.8,5.8,56,0.00,CLR,,0.00,WeatherDisplay:10.37,2013-01-13 18:27:00,
2013-01-13 12:32:00,13.8,1.0,29.91,WNW,301,4.0,4.0,56,0.00,CLR,,0.00,WeatherDisplay:10.37,2013-01-13 18:32:00,
2013-01-13 12:38:00,13.8,1.0,29.91,NW,313,4.6,4.6,56,0.00,CLR,,0.00,WeatherDisplay:10.37,2013-01-13 18:38:00,
2013-01-13 12:43:00,13.8,1.0,29.91,West,266,3.5,0.0,56,0.00,CLR,,0.00,WeatherDisplay:10.37,2013-01-13 18:43:00,
2013-01-13 12:48:00,13.8,1.0,29.91,WSW,257,3.5,3.5,56,0.00,CLR,,0.00,WeatherDisplay:10.37,2013-01-13 18:48:00,
2013-01-13 12:53:00,14.0,0.8,29.91,West,266,3.5,3.5,55,0.00,CLR,,0.00,WeatherDisplay:10.37,2013-01-13 18:53:00,
2013-01-13 12:58:00,14.0,0.8,29.91,WSW,240,5.8,5.8,55,0.00,CLR,,0.00,WeatherDisplay:10.37,2013-01-13 18:58:00,
2013-01-13 13:04:00,13.8,0.6,29.91,West,263,5.8,5.8,55,0.00,CLR,,0.00,WeatherDisplay:10.37,2013-01-13 19:04:00,
2013-01-13 13:09:00,13.8,0.6,29.91,WNW,293,3.5,3.5,55,0.00,CLR,,0.00,WeatherDisplay:10.37,2013-01-13 19:09:00,
2013-01-13 13:14:00,13.6,0.4,29.91,West,259,3.6,3.6,55,0.00,CLR,,0.00,WeatherDisplay:10.37,2013-01-13 19:14:00,
2013-01-13 13:19:00,13.8,0.6,29.91,WNW,283,6.9,6.9,55,0.00,CLR,,0.00,WeatherDisplay:10.37,2013-01-13 19:19:00,
2013-01-13 13:24:00,13.6,0.4,29.91,West,261,3.5,3.5,55,0.00,CLR,,0.00,WeatherDisplay:10.37,2013-01-13 19:24:00,
2013-01-13 13:29:00,13.8,0.6,29.91,West,281,4.9,4.9,55,0.00,CLR,,0.00,WeatherDisplay:10.37,2013-01-13 19:29:00,
2013-01-13 13:34:00,14.0,0.8,29.94,WNW,303,3.5,3.5,55,0.00,CLR,,0.00,WeatherDisplay:10.37,2013-01-13 19:34:00,
2013-01-13 13:39:00,13.8,0.6,29.94,WNW,283,5.8,5.8,55,0.00,CLR,,0.00,WeatherDisplay:10.37,2013-01-13 19:39:00,
2013-01-13 13:45:00,13.8,0.6,29.94,West,275,4.6,4.6,55,0.00,CLR,,0.00,WeatherDisplay:10.37,2013-01-13 19:45:00,
2013-01-13 13:50:00,13.8,0.6,29.94,West,272,8.1,8.1,55,0.00,CLR,,0.00,WeatherDisplay:10.37,2013-01-13 19:50:00,
2013-01-13 13:55:00,13.8,0.6,29.94,WSW,245,8.1,8.1,55,0.00,CLR,,0.00,WeatherDisplay:10.37,2013-01-13 19:55:00,
2013-01-13 14:00:00,13.6,0.4,29.94,SW,225,5.8,5.8,55,0.00,CLR,,0.00,WeatherDisplay:10.37,2013-01-13 20:00:00,
2013-01-13 14:05:00,13.6,0.4,29.94,WSW,245,8.1,8.1,55,0.00,CLR,,0.00,WeatherDisplay:10.37,2013-01-13 20:05:00,
2013-01-13 14:10:00,13.6,0.4,29.94,WSW,248,5.8,5.8,55,0.00,CLR,,0.00,WeatherDisplay:10.37,2013-01-13 20:10:00,
2013-01-13 14:16:00,13.6,0.4,29.94,West,259,5.8,5.8,55,0.00,CLR,,0.00,WeatherDisplay:10.37,2013-01-13 20:16:00,
2013-01-13 14:21:00,13.6,0.4,29.94,NW,313,5.8,5.8,55,0.00,CLR,,0.00,WeatherDisplay:10.37,2013-01-13 20:21:00,
2013-01-13 14:26:00,13.6,0.4,29.94,WSW,255,5.8,5.8,55,0.00,CLR,,0.00,WeatherDisplay:10.37,2013-01-13 20:26:00,
2013-01-13 14:31:00,13.6,0.4,29.94,WNW,292,8.1,8.1,55,0.00,CLR,,0.00,WeatherDisplay:10.37,2013-01-13 20:31:00,
2013-01-13 14:36:00,13.6,0.4,29.97,WNW,302,8.1,8.1,55,0.00,CLR,,0.00,WeatherDisplay:10.37,2013-01-13 20:36:00,
2013-01-13 14:42:00,13.8,0.6,29.97,WSW,254,5.8,5.8,55,0.00,CLR,,0.00,WeatherDisplay:10.37,2013-01-13 20:42:00,
2013-01-13 14:47:00,13.8,0.6,29.97,SW,234,8.1,8.1,55,0.00,CLR,,0.00,WeatherDisplay:10.37,2013-01-13 20:47:00,
2013-01-13 14:52:00,13.8,0.6,29.97,West,265,6.9,6.9,55,0.00,CLR,,0.00,WeatherDisplay:10.37,2013-01-13 20:52:00,
2013-01-13 14:57:00,13.8,0.6,29.97,WSW,247,5.8,5.8,55,0.00,CLR,,0.00,WeatherDisplay:10.37,2013-01-13 20:57:00,
2013-01-13 15:02:00,13.8,0.6,29.97,West,268,10.4,10.4,55,0.00,CLR,,0.00,WeatherDisplay:10.37,2013-01-13 21:02:00,
2013-01-13 15:07:00,13.6,0.4,29.97,West,264,5.8,5.8,55,0.00,CLR,,0.00,WeatherDisplay:10.37,2013-01-13 21:07:00,
2013-01-13 15:13:00,13.3,0.1,29.97,WNW,286,5.8,5.8,55,0.00,CLR,,0.00,WeatherDisplay:10.37,2013-01-13 21:13:00,
2013-01-13 15:18:00,12.9,-0.2,29.97,NW,308,5.8,5.8,55,0.00,CLR,,0.00,WeatherDisplay:10.37,2013-01-13 21:18:00,
2013-01-13 15:23:00,12.6,-0.6,29.97,West,262,5.8,5.8,55,0.00,CLR,,0.00,WeatherDisplay:10.37,2013-01-13 21:23:00,
2013-01-13 15:29:00,12.6,-0.6,29.97,West,275,3.6,3.6,55,0.00,CLR,,0.00,WeatherDisplay:10.37,2013-01-13 21:29:00,
2013-01-13 15:34:00,12.2,-0.9,29.97,WSW,249,5.8,5.8,55,0.00,CLR,,0.00,WeatherDisplay:10.37,2013-01-13 21:34:00,
2013-01-13 15:39:00,12.0,-1.1,29.97,SW,227,5.8,5.8,55,0.00,CLR,,0.00,WeatherDisplay:10.37,2013-01-13 21:39:00,
2013-01-13 15:44:00,11.7,-1.4,29.97,WNW,299,5.8,5.8,55,0.00,CLR,,0.00,WeatherDisplay:10.37,2013-01-13 21:44:00,
2013-01-13 15:49:00,11.5,-1.6,30.00,WNW,298,6.9,6.9,55,0.00,CLR,,0.00,WeatherDisplay:10.37,2013-01-13 21:49:00,
2013-01-13 15:54:00,11.1,-1.9,30.00,West,262,8.1,8.1,55,0.00,CLR,,0.00,WeatherDisplay:10.37,2013-01-13 21:54:00,
2013-01-13 15:59:00,11.1,-1.9,30.00,WNW,293,8.3,8.3,55,0.00,CLR,,0.00,WeatherDisplay:10.37,2013-01-13 21:59:00,
2013-01-13 16:05:00,11.1,-1.9,30.00,West,259,5.8,5.8,55,0.00,CLR,,0.00,WeatherDisplay:10.37,2013-01-13 22:05:00,
2013-01-13 16:10:00,11.1,-1.9,30.00,WNW,296,5.8,5.8,55,0.00,CLR,,0.00,WeatherDisplay:10.37,2013-01-13 22:10:00,
2013-01-13 16:15:00,11.1,-1.9,30.00,West,274,8.1,8.1,55,0.00,CLR,,0.00,WeatherDisplay:10.37,2013-01-13 22:15:00,
2013-01-13 16:20:00,10.8,-2.3,30.00,West,267,5.8,6.7,55,0.00,CLR,,0.00,WeatherDisplay:10.37,2013-01-13 22:20:00,
2013-01-13 16:25:00,10.4,-2.6,30.00,WNW,286,11.5,11.5,55,0.00,CLR,,0.00,WeatherDisplay:10.37,2013-01-13 22:25:00,
2013-01-13 16:31:00,10.0,-2.9,30.00,West,278,5.8,5.8,55,0.00,CLR,,0.00,WeatherDisplay:10.37,2013-01-13 22:31:00,
2013-01-13 16:36:00,9.5,-3.4,30.00,West,280,5.8,5.8,55,0.00,CLR,,0.00,WeatherDisplay:10.37,2013-01-13 22:36:00,
2013-01-13 16:41:00,9.3,-3.6,30.00,West,272,5.8,5.8,55,0.00,CLR,,0.00,WeatherDisplay:10.37,2013-01-13 22:41:00,
2013-01-13 16:46:00,9.0,-4.0,30.00,WNW,287,4.6,4.6,55,0.00,CLR,,0.00,WeatherDisplay:10.37,2013-01-13 22:46:00,
2013-01-13 16:52:00,8.8,-4.1,30.00,WNW,283,5.8,5.8,55,0.00,CLR,,0.00,WeatherDisplay:10.37,2013-01-13 22:52:00,
2013-01-13 16:57:00,8.6,-4.3,30.00,West,265,3.5,3.6,55,0.00,CLR,,0.00,WeatherDisplay:10.37,2013-01-13 22:57:00,
2013-01-13 17:02:00,8.2,-4.6,30.00,West,276,5.8,5.8,55,0.00,CLR,,0.00,WeatherDisplay:10.37,2013-01-13 23:02:00,
2013-01-13 17:07:00,8.1,-4.8,30.00,NW,308,5.8,5.8,55,0.00,CLR,,0.00,WeatherDisplay:10.37,2013-01-13 23:07:00,
2013-01-13 17:12:00,7.9,-5.0,30.00,West,266,5.8,5.8,55,0.00,CLR,,0.00,WeatherDisplay:10.37,2013-01-13 23:12:00,
2013-01-13 17:17:00,7.9,-5.0,30.03,WNW,293,5.8,5.8,55,0.00,CLR,,0.00,WeatherDisplay:10.37,2013-01-13 23:17:00,
2013-01-13 17:23:00,7.7,-5.1,30.03,WNW,295,8.1,8.1,55,0.00,CLR,,0.00,WeatherDisplay:10.37,2013-01-13 23:23:00,
2013-01-13 17:28:00,7.5,-5.3,30.03,West,279,5.8,5.8,55,0.00,CLR,,0.00,WeatherDisplay:10.37,2013-01-13 23:28:00,
2013-01-13 17:33:00,7.5,-5.3,30.03,West,263,5.8,5.8,55,0.00,CLR,,0.00,WeatherDisplay:10.37,2013-01-13 23:33:00,
2013-01-13 17:38:00,7.3,-5.5,30.03,NW,322,6.9,6.9,55,0.00,CLR,,0.00,WeatherDisplay:10.37,2013-01-13 23:38:00,
2013-01-13 17:43:00,7.2,-5.6,30.03,WNW,290,5.8,5.8,55,0.00,CLR,,0.00,WeatherDisplay:10.37,2013-01-13 23:43:00,
2013-01-13 17:48:00,7.2,-5.6,30.03,NW,310,5.8,5.8,55,0.00,CLR,,0.00,WeatherDisplay:10.37,2013-01-13 23:48:00,
2013-01-13 17:53:00,7.2,-5.6,30.03,WNW,300,4.6,4.6,55,0.00,CLR,,0.00,WeatherDisplay:10.37,2013-01-13 23:53:00,
2013-01-13 17:59:00,7.2,-5.6,30.03,WNW,288,5.8,5.8,55,0.00,CLR,,0.00,WeatherDisplay:10.37,2013-01-13 23:59:00,
2013-01-13 18:04:00,7.0,-5.8,30.03,SW,230,4.6,4.6,55,0.00,CLR,,0.00,WeatherDisplay:10.37,2013-01-14 00:04:00,
2013-01-13 18:09:00,7.0,-5.8,30.03,NW,306,3.5,3.5,55,0.00,CLR,,0.00,WeatherDisplay:10.37,2013-01-14 00:09:00,
2013-01-13 18:14:00,7.0,-5.8,30.03,West,268,5.4,5.4,55,0.00,CLR,,0.00,WeatherDisplay:10.37,2013-01-14 00:14:00,
2013-01-13 18:19:00,7.0,-5.8,30.03,NW,307,3.5,3.5,55,0.00,CLR,,0.00,WeatherDisplay:10.37,2013-01-14 00:19:00,
2013-01-13 18:25:00,7.0,-5.8,30.03,West,277,5.8,5.8,55,0.00,CLR,,0.00,WeatherDisplay:10.37,2013-01-14 00:25:00,
2013-01-13 18:30:00,7.0,-5.8,30.03,WSW,253,5.8,5.8,55,0.00,CLR,,0.00,WeatherDisplay:10.37,2013-01-14 00:30:00,
2013-01-13 18:35:00,7.0,-5.8,30.03,WSW,255,4.9,4.9,55,0.00,CLR,,0.00,WeatherDisplay:10.37,2013-01-14 00:35:00,
2013-01-13 18:40:00,7.2,-5.6,30.03,SW,234,5.8,5.8,55,0.00,CLR,,0.00,WeatherDisplay:10.37,2013-01-14 00:40:00,
2013-01-13 18:45:00,7.0,-5.8,30.03,NW,315,5.8,5.8,55,0.00,CLR,,0.00,WeatherDisplay:10.37,2013-01-14 00:45:00,
2013-01-13 18:50:00,7.2,-5.6,30.06,WNW,282,5.8,5.8,55,0.00,CLR,,0.00,WeatherDisplay:10.37,2013-01-14 00:50:00,
2013-01-13 18:56:00,7.0,-5.8,30.06,WSW,255,8.1,8.1,55,0.00,CLR,,0.00,WeatherDisplay:10.37,2013-01-14 00:56:00,
2013-01-13 19:01:00,7.0,-5.8,30.06,WNW,296,6.9,6.9,55,0.00,CLR,,0.00,WeatherDisplay:10.37,2013-01-14 01:01:00,
2013-01-13 19:06:00,7.0,-5.8,30.06,WNW,298,6.3,6.3,55,0.00,CLR,,0.00,WeatherDisplay:10.37,2013-01-14 01:06:00,
2013-01-13 19:11:00,7.0,-5.8,30.06,WNW,291,3.5,3.5,55,0.00,CLR,,0.00,WeatherDisplay:10.37,2013-01-14 01:11:00,
2013-01-13 19:16:00,7.0,-5.8,30.06,WNW,290,6.3,6.3,55,0.00,CLR,,0.00,WeatherDisplay:10.37,2013-01-14 01:16:00,
2013-01-13 19:21:00,6.8,-6.0,30.06,WNW,287,5.8,5.8,55,0.00,CLR,,0.00,WeatherDisplay:10.37,2013-01-14 01:21:00,
2013-01-13 19:26:00,6.8,-6.0,30.06,NW,318,5.8,5.8,55,0.00,CLR,,0.00,WeatherDisplay:10.37,2013-01-14 01:26:00,
2013-01-13 19:31:00,6.6,-6.1,30.06,NW,322,9.2,9.2,55,0.00,CLR,,0.00,WeatherDisplay:10.37,2013-01-14 01:31:00,
2013-01-13 19:37:00,6.4,-6.3,30.06,WNW,284,8.1,8.1,55,0.00,CLR,,0.00,WeatherDisplay:10.37,2013-01-14 01:37:00,
2013-01-13 19:42:00,6.4,-6.3,30.06,WNW,283,4.6,4.6,55,0.00,CLR,,0.00,WeatherDisplay:10.37,2013-01-14 01:42:00,
2013-01-13 19:47:00,6.4,-6.3,30.06,WSW,241,6.9,6.9,55,0.00,CLR,,0.00,WeatherDisplay:10.37,2013-01-14 01:47:00,
2013-01-13 19:52:00,6.4,-6.3,30.06,NW,322,5.8,5.8,55,0.00,CLR,,0.00,WeatherDisplay:10.37,2013-01-14 01:52:00,
2013-01-13 19:58:00,6.4,-6.3,30.06,WSW,238,5.8,5.8,55,0.00,CLR,,0.00,WeatherDisplay:10.37,2013-01-14 01:58:00,
2013-01-13 20:03:00,6.4,-6.3,30.06,NW,319,5.8,5.8,55,0.00,CLR,,0.00,WeatherDisplay:10.37,2013-01-14 02:03:00,
2013-01-13 20:08:00,6.3,-6.5,30.06,West,280,3.5,3.5,55,0.00,CLR,,0.00,WeatherDisplay:10.37,2013-01-14 02:08:00,
2013-01-13 20:13:00,6.3,-6.5,30.06,WSW,252,5.8,5.8,55,0.00,CLR,,0.00,WeatherDisplay:10.37,2013-01-14 02:13:00,
2013-01-13 20:18:00,6.3,-6.5,30.06,West,268,8.1,8.1,55,0.00,CLR,,0.00,WeatherDisplay:10.37,2013-01-14 02:18:00,
2013-01-13 20:23:00,6.3,-6.5,30.06,West,274,5.8,5.8,55,0.00,CLR,,0.00,WeatherDisplay:10.37,2013-01-14 02:23:00,
2013-01-13 20:29:00,6.3,-6.5,30.06,West,265,3.5,4.0,55,0.00,CLR,,0.00,WeatherDisplay:10.37,2013-01-14 02:29:00,
2013-01-13 20:34:00,6.1,-6.7,30.06,West,279,3.5,3.5,55,0.00,CLR,,0.00,WeatherDisplay:10.37,2013-01-14 02:34:00,
2013-01-13 20:39:00,6.1,-6.7,30.06,WNW,283,3.5,4.0,55,0.00,CLR,,0.00,WeatherDisplay:10.37,2013-01-14 02:39:00,
2013-01-13 20:44:00,6.1,-6.7,30.06,West,273,8.1,8.1,55,0.00,CLR,,0.00,WeatherDisplay:10.37,2013-01-14 02:44:00,
2013-01-13 20:49:00,5.9,-6.8,30.09,WNW,287,3.5,3.5,55,0.00,CLR,,0.00,WeatherDisplay:10.37,2013-01-14 02:49:00,
2013-01-13 20:54:00,5.9,-6.8,30.09,West,274,5.8,5.8,55,0.00,CLR,,0.00,WeatherDisplay:10.37,2013-01-14 02:54:00,
2013-01-13 20:59:00,5.7,-7.0,30.09,West,265,5.8,5.8,55,0.00,CLR,,0.00,WeatherDisplay:10.37,2013-01-14 02:59:00,
2013-01-13 21:04:00,5.5,-7.2,30.09,WNW,285,3.5,3.5,55,0.00,CLR,,0.00,WeatherDisplay:10.37,2013-01-14 03:04:00,
2013-01-13 21:10:00,5.5,-7.2,30.09,West,260,4.6,4.6,55,0.00,CLR,,0.00,WeatherDisplay:10.37,2013-01-14 03:10:00,
2013-01-13 21:15:00,5.5,-7.2,30.09,WSW,252,4.6,4.6,55,0.00,CLR,,0.00,WeatherDisplay:10.37,2013-01-14 03:15:00,
2013-01-13 21:20:00,5.5,-7.2,30.09,WNW,292,4.6,4.6,55,0.00,CLR,,0.00,WeatherDisplay:10.37,2013-01-14 03:20:00,
2013-01-13 21:26:00,5.4,-7.3,30.09,West,259,5.8,5.8,55,0.00,CLR,,0.00,WeatherDisplay:10.37,2013-01-14 03:26:00,
2013-01-13 21:31:00,5.4,-7.3,30.09,West,260,3.5,3.5,55,0.00,CLR,,0.00,WeatherDisplay:10.37,2013-01-14 03:31:00,
2013-01-13 21:36:00,5.4,-7.3,30.09,West,271,5.8,5.8,55,0.00,CLR,,0.00,WeatherDisplay:10.37,2013-01-14 03:36:00,
2013-01-13 21:41:00,5.4,-7.3,30.09,West,273,3.5,3.5,55,0.00,CLR,,0.00,WeatherDisplay:10.37,2013-01-14 03:41:00,
2013-01-13 21:46:00,5.2,-7.5,30.09,WSW,237,3.5,3.5,55,0.00,CLR,,0.00,WeatherDisplay:10.37,2013-01-14 03:46:00,
2013-01-13 21:51:00,5.2,-7.5,30.09,WSW,257,3.5,3.6,55,0.00,CLR,,0.00,WeatherDisplay:10.37,2013-01-14 03:51:00,
2013-01-13 21:57:00,5.2,-7.5,30.09,West,274,5.8,5.8,55,0.00,CLR,,0.00,WeatherDisplay:10.37,2013-01-14 03:57:00,
2013-01-13 22:02:00,5.0,-7.7,30.09,WNW,287,3.5,3.5,55,0.00,CLR,,0.00,WeatherDisplay:10.37,2013-01-14 04:02:00,
2013-01-13 22:07:00,5.0,-7.7,30.09,West,280,4.6,4.6,55,0.00,CLR,,0.00,WeatherDisplay:10.37,2013-01-14 04:07:00,
2013-01-13 22:12:00,5.0,-7.7,30.09,WSW,245,3.5,3.5,55,0.00,CLR,,0.00,WeatherDisplay:10.37,2013-01-14 04:12:00,
2013-01-13 22:17:00,5.0,-7.7,30.09,West,281,5.8,5.8,55,0.00,CLR,,0.00,WeatherDisplay:10.37,2013-01-14 04:17:00,
2013-01-13 22:23:00,5.0,-7.7,30.09,SW,236,3.5,3.5,55,0.00,CLR,,0.00,WeatherDisplay:10.37,2013-01-14 04:23:00,
2013-01-13 22:28:00,5.0,-7.7,30.09,WSW,244,3.5,3.5,55,0.00,CLR,,0.00,WeatherDisplay:10.37,2013-01-14 04:28:00,
2013-01-13 22:33:00,4.8,-7.8,30.09,West,259,4.6,4.6,55,0.00,CLR,,0.00,WeatherDisplay:10.37,2013-01-14 04:33:00,
2013-01-13 22:38:00,4.8,-7.8,30.09,WSW,240,3.5,3.5,55,0.00,CLR,,0.00,WeatherDisplay:10.37,2013-01-14 04:38:00,
2013-01-13 22:44:00,4.6,-8.0,30.09,WSW,248,5.8,5.8,55,0.00,CLR,,0.00,WeatherDisplay:10.37,2013-01-14 04:44:00,
2013-01-13 22:49:00,4.6,-8.0,30.12,WSW,252,6.3,6.3,55,0.00,CLR,,0.00,WeatherDisplay:10.37,2013-01-14 04:49:00,
2013-01-13 22:54:00,4.6,-8.0,30.12,West,262,5.8,5.8,55,0.00,CLR,,0.00,WeatherDisplay:10.37,2013-01-14 04:54:00,
2013-01-13 22:59:00,4.6,-8.0,30.12,West,266,3.5,3.5,55,0.00,CLR,,0.00,WeatherDisplay:10.37,2013-01-14 04:59:00,
2013-01-13 23:00:00,4.6,-8.0,30.12,WSW,248,3.5,3.5,55,0.00,CLR,,0.00,WeatherDisplay:10.37,2013-01-14 05:00:00,
2013-01-13 23:03:00,4.5,-8.2,30.12,West,281,4.6,4.6,55,0.00,CLR,,0.00,WeatherDisplay:10.37,2013-01-14 05:03:00,
2013-01-13 23:05:00,4.5,-8.2,30.09,West,271,3.5,3.5,55,0.00,CLR,,0.00,WeatherDisplay:10.37,2013-01-14 05:05:00,
2013-01-13 23:10:00,4.5,-8.2,30.09,WSW,237,4.6,4.6,55,0.00,CLR,,0.00,WeatherDisplay:10.37,2013-01-14 05:10:00,
2013-01-13 23:15:00,4.5,-8.2,30.09,West,275,5.8,5.8,55,0.00,CLR,,0.00,WeatherDisplay:10.37,2013-01-14 05:15:00,
2013-01-13 23:20:00,4.5,-8.2,30.09,SW,236,3.5,3.5,55,0.00,CLR,,0.00,WeatherDisplay:10.37,2013-01-14 05:20:00,
2013-01-13 23:26:00,4.5,-8.2,30.09,WSW,244,2.3,2.3,55,0.00,CLR,,0.00,WeatherDisplay:10.37,2013-01-14 05:26:00,
2013-01-13 23:31:00,4.3,-8.3,30.09,West,265,3.5,3.5,55,0.00,CLR,,0.00,WeatherDisplay:10.37,2013-01-14 05:31:00,
2013-01-13 23:36:00,4.3,-8.3,30.12,West,271,5.8,5.8,55,0.00,CLR,,0.00,WeatherDisplay:10.37,2013-01-14 05:36:00,
2013-01-13 23:42:00,4.3,-8.3,30.12,WSW,251,2.3,2.3,55,0.00,CLR,,0.00,WeatherDisplay:10.37,2013-01-14 05:42:00,
2013-01-13 23:47:00,4.3,-8.3,30.12,SW,233,4.0,4.0,55,0.00,CLR,,0.00,WeatherDisplay:10.37,2013-01-14 05:47:00,
2013-01-13 23:52:00,4.3,-8.3,30.12,SW,234,3.6,3.6,55,0.00,CLR,,0.00,WeatherDisplay:10.37,2013-01-14 05:52:00,
2013-01-13 23:57:00,4.3,-8.3,30.12,WSW,239,3.5,3.5,55,0.00,CLR,,0.00,WeatherDisplay:10.37,2013-01-14 05:57:00,